Point Vicente — WDB9763 — position and weather

sailwx.info

Track history (hours):
 
Tides and Currents Weather Stations Pressure Air Temp Water Temp Dewpoint Dewpoint Depression Visibility Wind Speed Wind Dir Waves Ship Positions

Point Vicente

Owner: Foss Maritime Company, Seattle, WA. More information available from US FCC via Universal Licensing System and Coast Guard Vessel Documentation Center.

Last reported at 2017-Sep-21 23:00 UTC. Time now 2017-Sep-21 23:25 UTC.
Position N 37°54' W 122°22'.

Length 32 m; draft 4.3 m.

Type: Tug. MMSI: 366982330.

Date/timePositionNaut miles runAvg speedWind from/ knotsBaromVisibWave heightAir tempDewpointWater temp
2017-Sep-21 23:00N 37°54' W 122°22'0 0.0
2017-Sep-21 22:30N 37°54' W 122°22'0 0.0
2017-Sep-21 22:00N 37°54' W 122°22'0 0.0
2017-Sep-21 21:30N 37°54' W 122°22'0 0.0
2017-Sep-21 21:00N 37°54' W 122°22'0 0.0
2017-Sep-21 20:30N 37°54' W 122°22'0 0.0
2017-Sep-21 20:00N 37°54' W 122°22'0 0.0
2017-Sep-21 19:21N 37°54' W 122°22'0 0.0
2017-Sep-21 18:48N 37°54' W 122°22'0 0.0
2017-Sep-21 18:18N 37°54' W 122°22'0 0.0
2017-Sep-21 18:00N 37°54' W 122°22'0 0.0
2017-Sep-21 17:30N 37°54' W 122°22'0 0.0
2017-Sep-21 17:00N 37°54' W 122°22'0 0.0
2017-Sep-21 16:30N 37°54' W 122°22'0 0.0
2017-Sep-21 16:00N 37°54' W 122°22'0 0.0
2017-Sep-21 15:30N 37°54' W 122°22'0 0.0
2017-Sep-21 15:00N 37°54' W 122°22'0 0.0
2017-Sep-21 14:27N 37°54' W 122°22'0 0.0
2017-Sep-21 14:00N 37°54' W 122°22'0 0.0
2017-Sep-21 13:30N 37°54' W 122°22'0 0.0
2017-Sep-21 13:00N 37°54' W 122°22'0 0.0
2017-Sep-21 12:30N 37°54' W 122°22'0 0.0
2017-Sep-21 12:00N 37°54' W 122°22'0 0.0
2017-Sep-21 11:30N 37°54' W 122°22'0 0.0
2017-Sep-21 11:00N 37°54' W 122°22'0 0.0
2017-Sep-21 10:30N 37°54' W 122°22'0 0.0
2017-Sep-21 10:00N 37°54' W 122°22'2 4.5
2017-Sep-21 09:31N 37°56' W 122°25'1 1.0
2017-Sep-21 09:00N 37°55' W 122°25'4 8.8
2017-Sep-21 08:30N 37°51' W 122°23'3 6.3
2017-Sep-21 08:00N 37°49' W 122°20'0 0.1
2017-Sep-21 07:30N 37°49' W 122°20'0 0.0
2017-Sep-21 07:00N 37°49' W 122°20'0 0.0
2017-Sep-21 06:30N 37°49' W 122°20'0 0.0
2017-Sep-21 06:00N 37°49' W 122°20'0 0.0
2017-Sep-21 05:30N 37°49' W 122°20'0 0.0
2017-Sep-21 05:00N 37°49' W 122°20'0 0.0
2017-Sep-21 04:30N 37°49' W 122°20'0 0.0
2017-Sep-21 04:00N 37°49' W 122°20'0 0.0
2017-Sep-21 03:30N 37°49' W 122°20'0 0.0
2017-Sep-21 03:00N 37°49' W 122°20'0 0.0
2017-Sep-21 02:30N 37°49' W 122°20'0 0.0
2017-Sep-21 02:00N 37°49' W 122°20'0 0.0
2017-Sep-21 01:30N 37°49' W 122°20'0 0.0
2017-Sep-21 01:00N 37°49' W 122°20'1 2.9
2017-Sep-21 00:31N 37°50' W 122°22'3 5.6
2017-Sep-21 00:00N 37°52' W 122°24'3 5.3
2017-Sep-20 23:30N 37°54' W 122°23'1 2.7
2017-Sep-20 23:00N 37°55' W 122°22'1 1.8
2017-Sep-20 22:30N 37°54' W 122°22'0 0.0
2017-Sep-20 21:59N 37°54' W 122°22'0 0.0
2017-Sep-20 21:26N 37°54' W 122°22'0 0.0
2017-Sep-20 20:56N 37°54' W 122°22'0 0.0
2017-Sep-20 20:26N 37°54' W 122°22'0 0.0
2017-Sep-20 19:59N 37°54' W 122°22'0 0.0
2017-Sep-20 19:26N 37°54' W 122°22'0 0.0
2017-Sep-20 18:56N 37°54' W 122°22'0 0.0
2017-Sep-20 18:26N 37°54' W 122°22'0 0.0
2017-Sep-20 17:56N 37°54' W 122°22'0 0.0
2017-Sep-20 17:29N 37°54' W 122°22'0 0.0
2017-Sep-20 16:56N 37°54' W 122°22'0 0.0
2017-Sep-20 16:26N 37°54' W 122°22'0 0.0
2017-Sep-20 15:56N 37°54' W 122°22'0 0.0
2017-Sep-20 15:29N 37°54' W 122°22'0 0.0
2017-Sep-20 14:59N 37°54' W 122°22'0 0.0
2017-Sep-20 13:56N 37°54' W 122°22'0 0.0
2017-Sep-20 13:26N 37°54' W 122°22'0 0.0
2017-Sep-20 12:59N 37°54' W 122°22'0 0.0
2017-Sep-20 12:26N 37°54' W 122°22'0 0.0
2017-Sep-20 11:56N 37°54' W 122°22'0 0.0
2017-Sep-20 11:29N 37°54' W 122°22'0 0.0
2017-Sep-20 10:59N 37°54' W 122°22'0 0.0
2017-Sep-20 10:26N 37°54' W 122°22'0 0.0
2017-Sep-20 09:59N 37°54' W 122°22'0 0.0
2017-Sep-20 09:29N 37°54' W 122°22'0 0.0
2017-Sep-20 08:56N 37°54' W 122°22'0 0.0
2017-Sep-20 08:29N 37°54' W 122°22'0 0.0
2017-Sep-20 07:56N 37°54' W 122°22'0 0.0
2017-Sep-20 07:29N 37°54' W 122°22'0 0.0
2017-Sep-20 06:56N 37°54' W 122°22'0 0.0
2017-Sep-20 06:26N 37°54' W 122°22'0 0.0
2017-Sep-20 05:59N 37°54' W 122°22'0 0.0
2017-Sep-20 05:26N 37°54' W 122°22'0 0.0
2017-Sep-20 04:59N 37°54' W 122°22'0 0.0
2017-Sep-20 04:26N 37°54' W 122°22'0 0.0
2017-Sep-20 03:56N 37°54' W 122°22'0 0.0
2017-Sep-20 03:26N 37°54' W 122°22'0 0.0
2017-Sep-20 02:59N 37°54' W 122°22'0 0.0
2017-Sep-20 02:29N 37°54' W 122°22'0 0.0
2017-Sep-20 01:59N 37°54' W 122°22'0 0.0
2017-Sep-20 01:26N 37°54' W 122°22'0 0.0
2017-Sep-20 00:56N 37°54' W 122°22'0 0.0
2017-Sep-20 00:26N 37°54' W 122°22'0 0.0
2017-Sep-19 23:56N 37°54' W 122°22'0 0.0
2017-Sep-19 23:26N 37°54' W 122°22'0 0.0
2017-Sep-19 22:56N 37°54' W 122°22'0 0.0
2017-Sep-19 22:26N 37°54' W 122°22'0 0.0
2017-Sep-19 21:50N 37°54' W 122°22'0 0.0
2017-Sep-19 21:26N 37°54' W 122°22'0 0.0
2017-Sep-19 20:56N 37°54' W 122°22'0 0.0
2017-Sep-19 20:29N 37°54' W 122°22'0 0.0
2017-Sep-19 19:56N 37°54' W 122°22'0 0.0
2017-Sep-19 19:26N 37°54' W 122°22'0 0.0
2017-Sep-19 18:56N 37°54' W 122°22'0 0.0
2017-Sep-19 18:29N 37°54' W 122°22'0 0.0
2017-Sep-19 17:56N 37°54' W 122°22'0 0.0
2017-Sep-19 17:29N 37°54' W 122°22'0 0.0
2017-Sep-19 16:56N 37°54' W 122°22'0 0.0
2017-Sep-19 16:29N 37°54' W 122°22'0 0.0
2017-Sep-19 15:59N 37°54' W 122°22'0 0.0
2017-Sep-19 15:29N 37°54' W 122°22'0 0.0
2017-Sep-19 14:59N 37°54' W 122°22'0 0.0
2017-Sep-19 14:29N 37°54' W 122°22'0 0.0
2017-Sep-19 13:59N 37°54' W 122°22'0 0.0
2017-Sep-19 13:29N 37°54' W 122°22'0 0.0
2017-Sep-19 12:59N 37°54' W 122°22'0 0.0
2017-Sep-19 12:29N 37°54' W 122°22'0 0.0
2017-Sep-19 11:59N 37°54' W 122°22'0 0.0
2017-Sep-19 11:29N 37°54' W 122°22'0 0.0
2017-Sep-19 10:59N 37°54' W 122°22'0 0.0
2017-Sep-19 10:29N 37°54' W 122°22'0 0.0
2017-Sep-19 09:59N 37°54' W 122°22'0 0.0
2017-Sep-19 09:29N 37°54' W 122°22'0 0.0
2017-Sep-19 08:56N 37°54' W 122°22'0 0.0
2017-Sep-19 08:26N 37°54' W 122°22'0 0.0
2017-Sep-19 07:59N 37°54' W 122°22'0 0.0
2017-Sep-19 07:29N 37°54' W 122°22'0 0.0
2017-Sep-19 06:59N 37°54' W 122°22'0 0.0
2017-Sep-19 06:29N 37°54' W 122°22'0 0.0
2017-Sep-19 05:56N 37°54' W 122°22'0 0.0
2017-Sep-19 05:29N 37°54' W 122°22'0 0.0
2017-Sep-19 04:59N 37°54' W 122°22'0 0.0
2017-Sep-19 04:29N 37°54' W 122°22'0 0.0
2017-Sep-19 03:56N 37°54' W 122°22'0 0.0
2017-Sep-19 03:26N 37°54' W 122°22'0 0.0
2017-Sep-19 02:59N 37°54' W 122°22'0 0.0
2017-Sep-19 02:26N 37°54' W 122°22'0 0.0
2017-Sep-19 01:59N 37°54' W 122°22'0 0.0
2017-Sep-19 01:29N 37°54' W 122°22'0 0.0
2017-Sep-19 00:56N 37°54' W 122°22'0 0.0
2017-Sep-19 00:29N 37°54' W 122°22'0 0.0
2017-Sep-18 23:50N 37°54' W 122°22'0 0.0
2017-Sep-18 23:29N 37°54' W 122°22'0 0.0
2017-Sep-18 22:59N 37°54' W 122°22'0 0.0
2017-Sep-18 22:29N 37°54' W 122°22'0 0.2
2017-Sep-18 22:00N 37°54' W 122°22'2 4.3
2017-Sep-18 21:30N 37°53' W 122°25'4 7.6
2017-Sep-18 21:00N 37°50' W 122°22'2 4.7
2017-Sep-18 20:30N 37°49' W 122°20'0 0.1
2017-Sep-18 20:00N 37°49' W 122°19'0 0.0
2017-Sep-18 19:30N 37°49' W 122°19'0 0.0
2017-Sep-18 19:00N 37°49' W 122°19'0 0.0
2017-Sep-18 18:30N 37°49' W 122°19'0 0.0
2017-Sep-18 18:00N 37°49' W 122°19'0 0.0
2017-Sep-18 17:30N 37°49' W 122°19'0 0.0
2017-Sep-18 17:00N 37°49' W 122°19'0 0.0
2017-Sep-18 16:30N 37°49' W 122°19'0 0.0
2017-Sep-18 16:00N 37°49' W 122°19'0 0.0
2017-Sep-18 15:30N 37°49' W 122°19'0 0.0
2017-Sep-18 15:00N 37°49' W 122°19'0 0.0
2017-Sep-18 14:30N 37°49' W 122°19'0 0.0
2017-Sep-18 14:00N 37°49' W 122°19'0 0.5
2017-Sep-18 13:30N 37°49' W 122°20'2 3.4
2017-Sep-18 13:00N 37°49' W 122°22'3 5.6
2017-Sep-18 12:30N 37°52' W 122°24'3 5.5
2017-Sep-18 12:00N 37°54' W 122°24'1 3.0
2017-Sep-18 11:30N 37°54' W 122°22'0 0.2
2017-Sep-18 11:00N 37°54' W 122°22'0 0.0
2017-Sep-18 10:30N 37°54' W 122°22'0 0.0
2017-Sep-18 10:00N 37°54' W 122°22'0 0.0
2017-Sep-18 09:30N 37°54' W 122°22'0 0.0
2017-Sep-18 09:00N 37°54' W 122°22'0 0.0
2017-Sep-18 08:30N 37°54' W 122°22'0 0.0
2017-Sep-18 08:00N 37°54' W 122°22'0 0.0
2017-Sep-18 07:30N 37°54' W 122°22'0 0.0
2017-Sep-18 07:00N 37°54' W 122°22'0 0.0
2017-Sep-18 06:30N 37°54' W 122°22'0 0.0
2017-Sep-18 05:54N 37°54' W 122°22'0 0.0
2017-Sep-18 05:30N 37°54' W 122°22'0 0.0
2017-Sep-18 04:57N 37°54' W 122°22'0 0.0
2017-Sep-18 04:30N 37°54' W 122°22'0 0.0
2017-Sep-18 04:00N 37°54' W 122°22'0 0.0
2017-Sep-18 03:30N 37°54' W 122°22'0 0.0
2017-Sep-18 03:00N 37°54' W 122°22'0 0.0
2017-Sep-18 02:30N 37°54' W 122°22'0 0.0
2017-Sep-18 01:54N 37°54' W 122°22'0 0.0
2017-Sep-18 01:30N 37°54' W 122°22'0 0.0
2017-Sep-18 00:57N 37°54' W 122°22'0 0.0
2017-Sep-18 00:24N 37°54' W 122°22'0 0.0
2017-Sep-17 23:57N 37°54' W 122°22'0 0.0
2017-Sep-17 23:30N 37°54' W 122°22'0 0.0
2017-Sep-17 22:57N 37°54' W 122°22'0 0.0
2017-Sep-17 22:15N 37°54' W 122°22'0 0.0
2017-Sep-17 21:57N 37°54' W 122°22'0 0.0
2017-Sep-17 21:27N 37°54' W 122°22'0 0.0
2017-Sep-17 20:57N 37°54' W 122°22'0 0.0
2017-Sep-17 20:27N 37°54' W 122°22'0 0.0
2017-Sep-17 19:54N 37°54' W 122°22'0 0.0
2017-Sep-17 19:30N 37°54' W 122°22'0 0.0
2017-Sep-17 18:57N 37°54' W 122°22'0 0.0
2017-Sep-17 18:30N 37°54' W 122°22'0 0.0
2017-Sep-17 18:00N 37°54' W 122°22'0 0.0
2017-Sep-17 17:30N 37°54' W 122°22'0 0.0
2017-Sep-17 17:00N 37°54' W 122°22'0 0.0
2017-Sep-17 16:30N 37°54' W 122°22'0 0.0
2017-Sep-17 16:00N 37°54' W 122°22'0 0.0
2017-Sep-17 15:30N 37°54' W 122°22'0 0.0
2017-Sep-17 15:00N 37°54' W 122°22'0 0.0
2017-Sep-17 14:30N 37°54' W 122°22'0 0.0
2017-Sep-17 14:00N 37°54' W 122°22'0 0.0
2017-Sep-17 13:30N 37°54' W 122°22'0 0.0
2017-Sep-17 13:00N 37°54' W 122°22'0 0.0
2017-Sep-17 12:30N 37°54' W 122°22'0 0.0
2017-Sep-17 12:00N 37°54' W 122°22'0 0.0
2017-Sep-17 11:30N 37°54' W 122°22'0 0.0
2017-Sep-17 11:00N 37°54' W 122°22'0 0.0
2017-Sep-17 10:30N 37°54' W 122°22'0 0.0
2017-Sep-17 09:57N 37°54' W 122°22'0 0.0
2017-Sep-17 09:30N 37°54' W 122°22'0 0.0
2017-Sep-17 09:00N 37°54' W 122°22'0 0.0
2017-Sep-17 08:30N 37°54' W 122°22'0 0.0
2017-Sep-17 08:00N 37°54' W 122°22'0 0.0
2017-Sep-17 07:27N 37°54' W 122°22'0 0.0
2017-Sep-17 06:51N 37°54' W 122°22'0 0.0
2017-Sep-17 06:27N 37°54' W 122°22'0 0.0
2017-Sep-17 06:00N 37°54' W 122°22'0 0.0
2017-Sep-17 05:30N 37°54' W 122°22'0 0.0
2017-Sep-17 04:57N 37°54' W 122°22'0 0.0
2017-Sep-17 04:27N 37°54' W 122°22'0 0.0
2017-Sep-17 03:57N 37°54' W 122°22'0 0.0
2017-Sep-17 03:27N 37°54' W 122°22'0 0.0
2017-Sep-17 02:57N 37°54' W 122°22'0 0.0
2017-Sep-17 01:45N 37°54' W 122°22'0 0.0
2017-Sep-17 01:30N 37°54' W 122°22'0 0.0
2017-Sep-17 01:00N 37°54' W 122°22'0 0.0
2017-Sep-17 00:30N 37°54' W 122°22'0 0.0
2017-Sep-17 00:00N 37°54' W 122°22'0 0.0
2017-Sep-16 23:30N 37°54' W 122°22'0 0.0
2017-Sep-16 23:00N 37°54' W 122°22'0 0.0
2017-Sep-16 22:27N 37°54' W 122°22'0 0.0
2017-Sep-16 21:57N 37°54' W 122°22'0 0.0
2017-Sep-16 21:30N 37°54' W 122°22'0 0.0
2017-Sep-16 21:00N 37°54' W 122°22'0 0.0
2017-Sep-16 20:30N 37°54' W 122°22'0 0.0
2017-Sep-16 19:57N 37°54' W 122°22'0 0.0
2017-Sep-16 19:30N 37°54' W 122°22'0 0.0
2017-Sep-16 19:00N 37°54' W 122°22'0 0.0
2017-Sep-16 18:30N 37°54' W 122°22'0 0.0
2017-Sep-16 17:57N 37°54' W 122°22'0 0.0
2017-Sep-16 17:27N 37°54' W 122°22'0 0.0
2017-Sep-16 16:57N 37°54' W 122°22'0 0.0
2017-Sep-16 16:30N 37°54' W 122°22'0 0.0
2017-Sep-16 16:00N 37°54' W 122°22'0 0.0
2017-Sep-16 15:30N 37°54' W 122°22'0 0.0
2017-Sep-16 15:00N 37°54' W 122°22'0 0.0
2017-Sep-16 14:30N 37°54' W 122°22'0 0.0
2017-Sep-16 14:00N 37°54' W 122°22'0 0.0
2017-Sep-16 13:30N 37°54' W 122°22'0 0.0
2017-Sep-16 13:00N 37°54' W 122°22'0 0.0
2017-Sep-16 12:30N 37°54' W 122°22'0 0.0
2017-Sep-16 11:54N 37°54' W 122°22'0 0.0
2017-Sep-16 11:30N 37°54' W 122°22'0 0.0
2017-Sep-16 11:00N 37°54' W 122°22'0 0.0
2017-Sep-16 10:24N 37°54' W 122°22'0 0.0
2017-Sep-16 10:00N 37°54' W 122°22'0 0.0
2017-Sep-16 09:30N 37°54' W 122°22'0 0.0
2017-Sep-16 09:00N 37°54' W 122°22'0 0.0
2017-Sep-16 08:27N 37°54' W 122°22'0 0.0
2017-Sep-16 08:00N 37°54' W 122°22'0 0.0
2017-Sep-16 07:30N 37°54' W 122°22'0 0.0
2017-Sep-16 07:00N 37°54' W 122°22'0 0.0
2017-Sep-16 06:27N 37°54' W 122°22'0 0.0
2017-Sep-16 05:57N 37°54' W 122°22'0 0.0
2017-Sep-16 05:27N 37°54' W 122°22'0 0.0
2017-Sep-16 04:51N 37°54' W 122°22'0 0.0
2017-Sep-16 04:27N 37°54' W 122°22'0 0.0
2017-Sep-16 03:45N 37°54' W 122°22'0 0.0
2017-Sep-16 03:27N 37°54' W 122°22'0 0.0
2017-Sep-16 02:54N 37°54' W 122°22'0 0.0
2017-Sep-16 02:30N 37°54' W 122°22'0 0.0
2017-Sep-16 01:57N 37°54' W 122°22'0 0.0
2017-Sep-16 01:30N 37°54' W 122°22'0 0.0
2017-Sep-16 01:00N 37°54' W 122°22'0 0.0
2017-Sep-16 00:27N 37°54' W 122°22'0 0.0
2017-Sep-15 23:57N 37°54' W 122°22'0 0.0
2017-Sep-15 23:24N 37°54' W 122°22'0 0.0
2017-Sep-15 22:51N 37°54' W 122°22'0 0.0
2017-Sep-15 22:27N 37°54' W 122°22'0 0.0
2017-Sep-15 21:54N 37°54' W 122°22'0 0.0
2017-Sep-15 21:24N 37°54' W 122°22'0 0.0
2017-Sep-15 20:57N 37°54' W 122°22'0 0.0
2017-Sep-15 20:27N 37°54' W 122°22'0 0.0
2017-Sep-15 19:57N 37°54' W 122°22'0 0.0
2017-Sep-15 19:27N 37°54' W 122°22'0 0.0
2017-Sep-15 19:00N 37°54' W 122°22'0 0.0
2017-Sep-15 18:30N 37°54' W 122°22'0 0.0
2017-Sep-15 18:00N 37°54' W 122°22'0 0.0
2017-Sep-15 17:30N 37°54' W 122°22'0 0.0
2017-Sep-15 17:00N 37°54' W 122°22'0 0.0
2017-Sep-15 16:30N 37°54' W 122°22'0 0.0
2017-Sep-15 16:00N 37°54' W 122°22'0 0.0
2017-Sep-15 15:30N 37°54' W 122°22'0 0.0
2017-Sep-15 15:00N 37°54' W 122°22'0 0.0
2017-Sep-15 14:30N 37°54' W 122°22'0 0.0
2017-Sep-15 13:54N 37°54' W 122°22'0 0.0
2017-Sep-15 13:30N 37°54' W 122°22'0 0.0
2017-Sep-15 13:00N 37°54' W 122°22'0 0.0
2017-Sep-15 12:30N 37°54' W 122°22'0 0.0
2017-Sep-15 12:00N 37°54' W 122°22'0 0.0
2017-Sep-15 11:30N 37°54' W 122°22'0 0.0
2017-Sep-15 11:00N 37°54' W 122°22'0 0.0
2017-Sep-15 10:30N 37°54' W 122°22'0 0.0
2017-Sep-15 10:00N 37°54' W 122°22'0 0.0
2017-Sep-15 09:30N 37°54' W 122°22'0 0.0
2017-Sep-15 09:00N 37°54' W 122°22'0 0.0
2017-Sep-15 08:30N 37°54' W 122°22'0 0.0
2017-Sep-15 08:00N 37°54' W 122°22'0 0.0
2017-Sep-15 07:30N 37°54' W 122°22'0 0.0
2017-Sep-15 07:00N 37°54' W 122°22'0 0.0
2017-Sep-15 06:27N 37°54' W 122°22'0 0.0
2017-Sep-15 05:57N 37°54' W 122°22'0 0.0
2017-Sep-15 05:21N 37°54' W 122°22'0 0.0
2017-Sep-15 04:54N 37°54' W 122°22'0 0.0
2017-Sep-15 04:21N 37°54' W 122°22'0 0.0
2017-Sep-15 03:57N 37°54' W 122°22'0 0.0
2017-Sep-15 03:27N 37°54' W 122°22'0 0.0
2017-Sep-15 02:57N 37°54' W 122°22'0 0.0
2017-Sep-15 02:21N 37°54' W 122°22'0 0.0
2017-Sep-15 01:48N 37°54' W 122°22'0 0.0
2017-Sep-15 01:24N 37°54' W 122°22'0 0.0
2017-Sep-15 01:00N 37°54' W 122°22'0 0.0
2017-Sep-15 00:24N 37°54' W 122°22'0 0.0
2017-Sep-15 00:00N 37°54' W 122°22'0 0.0
2017-Sep-14 23:27N 37°54' W 122°22'0 0.0
2017-Sep-14 23:00N 37°54' W 122°22'0 0.0
2017-Sep-14 22:30N 37°54' W 122°22'0 0.0
2017-Sep-14 22:00N 37°54' W 122°22'0 0.0
2017-Sep-14 21:30N 37°54' W 122°22'0 0.0
2017-Sep-14 20:51N 37°54' W 122°22'0 0.0
2017-Sep-14 20:30N 37°54' W 122°22'0 0.0
2017-Sep-14 20:00N 37°54' W 122°22'0 0.0
2017-Sep-14 19:27N 37°54' W 122°22'0 0.0
2017-Sep-14 19:00N 37°54' W 122°22'0 0.0
2017-Sep-14 18:30N 37°54' W 122°22'0 0.0
2017-Sep-14 18:00N 37°54' W 122°22'0 0.0
2017-Sep-14 17:24N 37°54' W 122°22'0 0.0
2017-Sep-14 17:00N 37°54' W 122°22'0 0.0
2017-Sep-14 16:30N 37°54' W 122°22'0 0.0
2017-Sep-14 16:00N 37°54' W 122°22'0 0.0
2017-Sep-14 15:30N 37°54' W 122°22'0 0.0
2017-Sep-14 14:57N 37°54' W 122°22'0 0.0
2017-Sep-14 14:24N 37°54' W 122°22'0 0.0
2017-Sep-14 14:00N 37°54' W 122°22'0 0.0
2017-Sep-14 13:30N 37°54' W 122°22'0 0.0
2017-Sep-14 13:00N 37°54' W 122°22'0 0.0
2017-Sep-14 12:30N 37°54' W 122°22'0 0.0
2017-Sep-14 12:00N 37°54' W 122°22'0 0.0
2017-Sep-14 11:30N 37°54' W 122°22'0 0.0
2017-Sep-14 10:51N 37°54' W 122°22'0 0.0
2017-Sep-14 10:24N 37°54' W 122°22'0 0.0
2017-Sep-14 10:00N 37°54' W 122°22'0 0.0
2017-Sep-14 09:30N 37°54' W 122°22'0 0.0
2017-Sep-14 09:00N 37°54' W 122°22'0 0.0
2017-Sep-14 08:30N 37°54' W 122°22'0 0.0
2017-Sep-14 08:00N 37°54' W 122°22'0 0.0
2017-Sep-14 07:30N 37°54' W 122°22'0 0.0
2017-Sep-14 07:00N 37°54' W 122°22'0 0.0
2017-Sep-14 06:30N 37°54' W 122°22'0 0.0
2017-Sep-14 05:57N 37°54' W 122°22'0 0.0
2017-Sep-14 05:30N 37°54' W 122°22'0 0.0
2017-Sep-14 04:57N 37°54' W 122°22'0 0.0
2017-Sep-14 04:30N 37°54' W 122°22'0 0.0
2017-Sep-14 04:00N 37°54' W 122°22'0 0.0
2017-Sep-14 03:24N 37°54' W 122°22'0 0.0
2017-Sep-14 03:00N 37°54' W 122°22'0 0.0
2017-Sep-14 02:30N 37°54' W 122°22'0 0.0
2017-Sep-14 02:00N 37°54' W 122°22'0 0.0
2017-Sep-14 01:30N 37°54' W 122°22'0 0.0
2017-Sep-14 01:00N 37°54' W 122°22'0 0.0
2017-Sep-14 00:30N 37°54' W 122°22'0 0.0
2017-Sep-14 00:00N 37°54' W 122°22'0 0.0
2017-Sep-13 23:30N 37°54' W 122°22'0 0.0
2017-Sep-13 23:00N 37°54' W 122°22'0 0.0
2017-Sep-13 22:30N 37°54' W 122°22'0 0.0
2017-Sep-13 22:00N 37°54' W 122°22'0 0.0
2017-Sep-13 21:30N 37°54' W 122°22'0 0.0
2017-Sep-13 21:00N 37°54' W 122°22'0 0.0
2017-Sep-13 20:30N 37°54' W 122°22'0 0.0
2017-Sep-13 20:00N 37°54' W 122°22'0 0.0
2017-Sep-13 19:30N 37°54' W 122°22'0 0.0
2017-Sep-13 18:54N 37°54' W 122°22'0 0.0
2017-Sep-13 18:30N 37°54' W 122°22'0 0.0
2017-Sep-13 18:00N 37°54' W 122°22'0 0.0
2017-Sep-13 17:30N 37°54' W 122°22'0 0.0
2017-Sep-13 16:54N 37°54' W 122°22'0 0.0
2017-Sep-13 16:30N 37°54' W 122°22'0 0.0
2017-Sep-13 15:54N 37°54' W 122°22'0 0.0
2017-Sep-13 15:30N 37°54' W 122°22'0 0.0
2017-Sep-13 15:00N 37°54' W 122°22'0 0.0
2017-Sep-13 14:30N 37°54' W 122°22'0 0.0
2017-Sep-13 14:00N 37°54' W 122°22'0 0.0
2017-Sep-13 13:30N 37°54' W 122°22'0 0.0
2017-Sep-13 13:00N 37°54' W 122°22'0 0.0
2017-Sep-13 12:30N 37°54' W 122°22'0 0.0
2017-Sep-13 12:00N 37°54' W 122°22'0 0.0
2017-Sep-13 11:30N 37°54' W 122°22'0 0.0
2017-Sep-13 11:00N 37°54' W 122°22'0 0.0
2017-Sep-13 10:30N 37°54' W 122°22'0 0.0
2017-Sep-13 10:00N 37°54' W 122°22'0 0.0
2017-Sep-13 09:30N 37°54' W 122°22'0 0.0
2017-Sep-13 09:00N 37°54' W 122°22'0 0.0
2017-Sep-13 08:30N 37°54' W 122°22'0 0.0
2017-Sep-13 08:00N 37°54' W 122°22'0 0.0
2017-Sep-13 07:30N 37°54' W 122°22'0 0.0
2017-Sep-13 07:00N 37°54' W 122°22'0 0.0
2017-Sep-13 06:30N 37°54' W 122°22'0 0.0
2017-Sep-13 05:57N 37°54' W 122°22'0 0.0
2017-Sep-13 05:30N 37°54' W 122°22'0 0.0
2017-Sep-13 04:57N 37°54' W 122°22'0 0.0
2017-Sep-13 04:30N 37°54' W 122°22'0 0.0
2017-Sep-13 04:00N 37°54' W 122°22'0 0.0
2017-Sep-13 03:30N 37°54' W 122°22'0 0.0
2017-Sep-13 03:00N 37°54' W 122°22'0 0.0
2017-Sep-13 02:30N 37°54' W 122°22'0 0.0
2017-Sep-13 02:00N 37°54' W 122°22'0 0.0
2017-Sep-13 01:30N 37°54' W 122°22'0 0.0
2017-Sep-13 01:00N 37°54' W 122°22'0 0.0
2017-Sep-13 00:30N 37°54' W 122°22'0 0.0
2017-Sep-13 00:00N 37°54' W 122°22'0 0.0
2017-Sep-12 23:30N 37°54' W 122°22'0 0.0
2017-Sep-12 23:00N 37°54' W 122°22'0 0.0
2017-Sep-12 22:30N 37°54' W 122°22'0 0.0
2017-Sep-12 22:00N 37°54' W 122°22'0 0.0
2017-Sep-12 21:30N 37°54' W 122°22'0 0.0
2017-Sep-12 21:00N 37°54' W 122°22'0 0.0
2017-Sep-12 20:30N 37°54' W 122°22'0 0.0
2017-Sep-12 20:00N 37°54' W 122°22'0 0.0
2017-Sep-12 19:30N 37°54' W 122°22'0 0.0
2017-Sep-12 19:00N 37°54' W 122°22'0 0.0
2017-Sep-12 18:27N 37°54' W 122°22'0 0.0
2017-Sep-12 17:54N 37°54' W 122°22'0 0.0
2017-Sep-12 17:27N 37°54' W 122°22'0 0.0
2017-Sep-12 16:54N 37°54' W 122°22'0 0.0
2017-Sep-12 16:30N 37°54' W 122°22'0 0.0
2017-Sep-12 16:00N 37°54' W 122°22'0 0.0
2017-Sep-12 15:30N 37°54' W 122°22'0 0.0
2017-Sep-12 15:00N 37°54' W 122°22'0 0.0
2017-Sep-12 14:30N 37°54' W 122°22'0 0.0
2017-Sep-12 14:00N 37°54' W 122°22'0 0.0
2017-Sep-12 13:30N 37°54' W 122°22'0 0.0
2017-Sep-12 13:00N 37°54' W 122°22'0 0.0
2017-Sep-12 12:30N 37°54' W 122°22'0 0.0
2017-Sep-12 12:00N 37°54' W 122°22'0 0.0
2017-Sep-12 11:30N 37°54' W 122°22'0 0.0
2017-Sep-12 11:00N 37°54' W 122°22'0 0.0
2017-Sep-12 10:30N 37°54' W 122°22'0 0.0
2017-Sep-12 10:00N 37°54' W 122°22'0 0.0
2017-Sep-12 09:30N 37°54' W 122°22'0 0.0
2017-Sep-12 09:00N 37°54' W 122°22'0 0.0
2017-Sep-12 08:30N 37°54' W 122°22'0 0.0
2017-Sep-12 08:00N 37°54' W 122°22'0 0.0
2017-Sep-12 07:30N 37°54' W 122°22'0 0.0
2017-Sep-12 07:00N 37°54' W 122°22'0 0.0
2017-Sep-12 06:30N 37°54' W 122°22'0 0.0
2017-Sep-12 06:00N 37°54' W 122°22'0 0.0
2017-Sep-12 05:30N 37°54' W 122°22'0 0.0
2017-Sep-12 05:00N 37°54' W 122°22'0 0.0
2017-Sep-12 04:24N 37°54' W 122°22'0 0.0
2017-Sep-12 04:00N 37°54' W 122°22'0 0.0
2017-Sep-12 03:30N 37°54' W 122°22'0 0.0
2017-Sep-12 03:00N 37°54' W 122°22'0 0.0
2017-Sep-12 02:30N 37°54' W 122°22'0 0.0
2017-Sep-12 02:00N 37°54' W 122°22'0 0.0
2017-Sep-12 01:30N 37°54' W 122°22'0 0.0
2017-Sep-12 00:54N 37°54' W 122°22'0 0.0
2017-Sep-12 00:30N 37°54' W 122°22'0 0.2
2017-Sep-12 00:00N 37°54' W 122°22'1 1.5
2017-Sep-11 23:31N 37°54' W 122°23'3 6.4
2017-Sep-11 23:01N 37°51' W 122°23'  
Track history (hours):
 
Tides and Currents Weather Stations Pressure Air Temp Water Temp Dewpoint Dewpoint Depression Visibility Wind Speed Wind Dir Waves Ship Positions

Point Vicente

Owner: Foss Maritime Company, Seattle, WA. More information available from US FCC via Universal Licensing System and Coast Guard Vessel Documentation Center.

Last reported at 2017-Sep-21 23:00 UTC. Time now 2017-Sep-21 23:25 UTC.
Position N 37°54' W 122°22'.

Length 32 m; draft 4.3 m.

Type: Tug. MMSI: 366982330.

Date/timePositionNaut miles runAvg speedWind from/ knotsBaromVisibWave heightAir tempDewpointWater temp
2017-Sep-21 23:00N 37°54' W 122°22'0 0.0
2017-Sep-21 22:30N 37°54' W 122°22'0 0.0
2017-Sep-21 22:00N 37°54' W 122°22'0 0.0
2017-Sep-21 21:30N 37°54' W 122°22'0 0.0
2017-Sep-21 21:00N 37°54' W 122°22'0 0.0
2017-Sep-21 20:30N 37°54' W 122°22'0 0.0
2017-Sep-21 20:00N 37°54' W 122°22'0 0.0
2017-Sep-21 19:21N 37°54' W 122°22'0 0.0
2017-Sep-21 18:48N 37°54' W 122°22'0 0.0
2017-Sep-21 18:18N 37°54' W 122°22'0 0.0
2017-Sep-21 18:00N 37°54' W 122°22'0 0.0
2017-Sep-21 17:30N 37°54' W 122°22'0 0.0
2017-Sep-21 17:00N 37°54' W 122°22'0 0.0
2017-Sep-21 16:30N 37°54' W 122°22'0 0.0
2017-Sep-21 16:00N 37°54' W 122°22'0 0.0
2017-Sep-21 15:30N 37°54' W 122°22'0 0.0
2017-Sep-21 15:00N 37°54' W 122°22'0 0.0
2017-Sep-21 14:27N 37°54' W 122°22'0 0.0
2017-Sep-21 14:00N 37°54' W 122°22'0 0.0
2017-Sep-21 13:30N 37°54' W 122°22'0 0.0
2017-Sep-21 13:00N 37°54' W 122°22'0 0.0
2017-Sep-21 12:30N 37°54' W 122°22'0 0.0
2017-Sep-21 12:00N 37°54' W 122°22'0 0.0
2017-Sep-21 11:30N 37°54' W 122°22'0 0.0
2017-Sep-21 11:00N 37°54' W 122°22'0 0.0
2017-Sep-21 10:30N 37°54' W 122°22'0 0.0
2017-Sep-21 10:00N 37°54' W 122°22'2 4.5
2017-Sep-21 09:31N 37°56' W 122°25'1 1.0
2017-Sep-21 09:00N 37°55' W 122°25'4 8.8
2017-Sep-21 08:30N 37°51' W 122°23'3 6.3
2017-Sep-21 08:00N 37°49' W 122°20'0 0.1
2017-Sep-21 07:30N 37°49' W 122°20'0 0.0
2017-Sep-21 07:00N 37°49' W 122°20'0 0.0
2017-Sep-21 06:30N 37°49' W 122°20'0 0.0
2017-Sep-21 06:00N 37°49' W 122°20'0 0.0
2017-Sep-21 05:30N 37°49' W 122°20'0 0.0
2017-Sep-21 05:00N 37°49' W 122°20'0 0.0
2017-Sep-21 04:30N 37°49' W 122°20'0 0.0
2017-Sep-21 04:00N 37°49' W 122°20'0 0.0
2017-Sep-21 03:30N 37°49' W 122°20'0 0.0
2017-Sep-21 03:00N 37°49' W 122°20'0 0.0
2017-Sep-21 02:30N 37°49' W 122°20'0 0.0
2017-Sep-21 02:00N 37°49' W 122°20'0 0.0
2017-Sep-21 01:30N 37°49' W 122°20'0 0.0
2017-Sep-21 01:00N 37°49' W 122°20'1 2.9
2017-Sep-21 00:31N 37°50' W 122°22'3 5.6
2017-Sep-21 00:00N 37°52' W 122°24'3 5.3
2017-Sep-20 23:30N 37°54' W 122°23'1 2.7
2017-Sep-20 23:00N 37°55' W 122°22'1 1.8
2017-Sep-20 22:30N 37°54' W 122°22'0 0.0
2017-Sep-20 21:59N 37°54' W 122°22'0 0.0
2017-Sep-20 21:26N 37°54' W 122°22'0 0.0
2017-Sep-20 20:56N 37°54' W 122°22'0 0.0
2017-Sep-20 20:26N 37°54' W 122°22'0 0.0
2017-Sep-20 19:59N 37°54' W 122°22'0 0.0
2017-Sep-20 19:26N 37°54' W 122°22'0 0.0
2017-Sep-20 18:56N 37°54' W 122°22'0 0.0
2017-Sep-20 18:26N 37°54' W 122°22'0 0.0
2017-Sep-20 17:56N 37°54' W 122°22'0 0.0
2017-Sep-20 17:29N 37°54' W 122°22'0 0.0
2017-Sep-20 16:56N 37°54' W 122°22'0 0.0
2017-Sep-20 16:26N 37°54' W 122°22'0 0.0
2017-Sep-20 15:56N 37°54' W 122°22'0 0.0
2017-Sep-20 15:29N 37°54' W 122°22'0 0.0
2017-Sep-20 14:59N 37°54' W 122°22'0 0.0
2017-Sep-20 13:56N 37°54' W 122°22'0 0.0
2017-Sep-20 13:26N 37°54' W 122°22'0 0.0
2017-Sep-20 12:59N 37°54' W 122°22'0 0.0
2017-Sep-20 12:26N 37°54' W 122°22'0 0.0
2017-Sep-20 11:56N 37°54' W 122°22'0 0.0
2017-Sep-20 11:29N 37°54' W 122°22'0 0.0
2017-Sep-20 10:59N 37°54' W 122°22'0 0.0
2017-Sep-20 10:26N 37°54' W 122°22'0 0.0
2017-Sep-20 09:59N 37°54' W 122°22'0 0.0
2017-Sep-20 09:29N 37°54' W 122°22'0 0.0
2017-Sep-20 08:56N 37°54' W 122°22'0 0.0
2017-Sep-20 08:29N 37°54' W 122°22'0 0.0
2017-Sep-20 07:56N 37°54' W 122°22'0 0.0
2017-Sep-20 07:29N 37°54' W 122°22'0 0.0
2017-Sep-20 06:56N 37°54' W 122°22'0 0.0
2017-Sep-20 06:26N 37°54' W 122°22'0 0.0
2017-Sep-20 05:59N 37°54' W 122°22'0 0.0
2017-Sep-20 05:26N 37°54' W 122°22'0 0.0
2017-Sep-20 04:59N 37°54' W 122°22'0 0.0
2017-Sep-20 04:26N 37°54' W 122°22'0 0.0
2017-Sep-20 03:56N 37°54' W 122°22'0 0.0
2017-Sep-20 03:26N 37°54' W 122°22'0 0.0
2017-Sep-20 02:59N 37°54' W 122°22'0 0.0
2017-Sep-20 02:29N 37°54' W 122°22'0 0.0
2017-Sep-20 01:59N 37°54' W 122°22'0 0.0
2017-Sep-20 01:26N 37°54' W 122°22'0 0.0
2017-Sep-20 00:56N 37°54' W 122°22'0 0.0
2017-Sep-20 00:26N 37°54' W 122°22'0 0.0
2017-Sep-19 23:56N 37°54' W 122°22'0 0.0
2017-Sep-19 23:26N 37°54' W 122°22'0 0.0
2017-Sep-19 22:56N 37°54' W 122°22'0 0.0
2017-Sep-19 22:26N 37°54' W 122°22'0 0.0
2017-Sep-19 21:50N 37°54' W 122°22'0 0.0
2017-Sep-19 21:26N 37°54' W 122°22'0 0.0
2017-Sep-19 20:56N 37°54' W 122°22'0 0.0
2017-Sep-19 20:29N 37°54' W 122°22'0 0.0
2017-Sep-19 19:56N 37°54' W 122°22'0 0.0
2017-Sep-19 19:26N 37°54' W 122°22'0 0.0
2017-Sep-19 18:56N 37°54' W 122°22'0 0.0
2017-Sep-19 18:29N 37°54' W 122°22'0 0.0
2017-Sep-19 17:56N 37°54' W 122°22'0 0.0
2017-Sep-19 17:29N 37°54' W 122°22'0 0.0
2017-Sep-19 16:56N 37°54' W 122°22'0 0.0
2017-Sep-19 16:29N 37°54' W 122°22'0 0.0
2017-Sep-19 15:59N 37°54' W 122°22'0 0.0
2017-Sep-19 15:29N 37°54' W 122°22'0 0.0
2017-Sep-19 14:59N 37°54' W 122°22'0 0.0
2017-Sep-19 14:29N 37°54' W 122°22'0 0.0
2017-Sep-19 13:59N 37°54' W 122°22'0 0.0
2017-Sep-19 13:29N 37°54' W 122°22'0 0.0
2017-Sep-19 12:59N 37°54' W 122°22'0 0.0
2017-Sep-19 12:29N 37°54' W 122°22'0 0.0
2017-Sep-19 11:59N 37°54' W 122°22'0 0.0
2017-Sep-19 11:29N 37°54' W 122°22'0 0.0
2017-Sep-19 10:59N 37°54' W 122°22'0 0.0
2017-Sep-19 10:29N 37°54' W 122°22'0 0.0
2017-Sep-19 09:59N 37°54' W 122°22'0 0.0
2017-Sep-19 09:29N 37°54' W 122°22'0 0.0
2017-Sep-19 08:56N 37°54' W 122°22'0 0.0
2017-Sep-19 08:26N 37°54' W 122°22'0 0.0
2017-Sep-19 07:59N 37°54' W 122°22'0 0.0
2017-Sep-19 07:29N 37°54' W 122°22'0 0.0
2017-Sep-19 06:59N 37°54' W 122°22'0 0.0
2017-Sep-19 06:29N 37°54' W 122°22'0 0.0
2017-Sep-19 05:56N 37°54' W 122°22'0 0.0
2017-Sep-19 05:29N 37°54' W 122°22'0 0.0
2017-Sep-19 04:59N 37°54' W 122°22'0 0.0
2017-Sep-19 04:29N 37°54' W 122°22'0 0.0
2017-Sep-19 03:56N 37°54' W 122°22'0 0.0
2017-Sep-19 03:26N 37°54' W 122°22'0 0.0
2017-Sep-19 02:59N 37°54' W 122°22'0 0.0
2017-Sep-19 02:26N 37°54' W 122°22'0 0.0
2017-Sep-19 01:59N 37°54' W 122°22'0 0.0
2017-Sep-19 01:29N 37°54' W 122°22'0 0.0
2017-Sep-19 00:56N 37°54' W 122°22'0 0.0
2017-Sep-19 00:29N 37°54' W 122°22'0 0.0
2017-Sep-18 23:50N 37°54' W 122°22'0 0.0
2017-Sep-18 23:29N 37°54' W 122°22'0 0.0
2017-Sep-18 22:59N 37°54' W 122°22'0 0.0
2017-Sep-18 22:29N 37°54' W 122°22'0 0.2
2017-Sep-18 22:00N 37°54' W 122°22'2 4.3
2017-Sep-18 21:30N 37°53' W 122°25'4 7.6
2017-Sep-18 21:00N 37°50' W 122°22'2 4.7
2017-Sep-18 20:30N 37°49' W 122°20'0 0.1
2017-Sep-18 20:00N 37°49' W 122°19'0 0.0
2017-Sep-18 19:30N 37°49' W 122°19'0 0.0
2017-Sep-18 19:00N 37°49' W 122°19'0 0.0
2017-Sep-18 18:30N 37°49' W 122°19'0 0.0
2017-Sep-18 18:00N 37°49' W 122°19'0 0.0
2017-Sep-18 17:30N 37°49' W 122°19'0 0.0
2017-Sep-18 17:00N 37°49' W 122°19'0 0.0
2017-Sep-18 16:30N 37°49' W 122°19'0 0.0
2017-Sep-18 16:00N 37°49' W 122°19'0 0.0
2017-Sep-18 15:30N 37°49' W 122°19'0 0.0
2017-Sep-18 15:00N 37°49' W 122°19'0 0.0
2017-Sep-18 14:30N 37°49' W 122°19'0 0.0
2017-Sep-18 14:00N 37°49' W 122°19'0 0.5
2017-Sep-18 13:30N 37°49' W 122°20'2 3.4
2017-Sep-18 13:00N 37°49' W 122°22'3 5.6
2017-Sep-18 12:30N 37°52' W 122°24'3 5.5
2017-Sep-18 12:00N 37°54' W 122°24'1 3.0
2017-Sep-18 11:30N 37°54' W 122°22'0 0.2
2017-Sep-18 11:00N 37°54' W 122°22'0 0.0
2017-Sep-18 10:30N 37°54' W 122°22'0 0.0
2017-Sep-18 10:00N 37°54' W 122°22'0 0.0
2017-Sep-18 09:30N 37°54' W 122°22'0 0.0
2017-Sep-18 09:00N 37°54' W 122°22'0 0.0
2017-Sep-18 08:30N 37°54' W 122°22'0 0.0
2017-Sep-18 08:00N 37°54' W 122°22'0 0.0
2017-Sep-18 07:30N 37°54' W 122°22'0 0.0
2017-Sep-18 07:00N 37°54' W 122°22'0 0.0
2017-Sep-18 06:30N 37°54' W 122°22'0 0.0
2017-Sep-18 05:54N 37°54' W 122°22'0 0.0
2017-Sep-18 05:30N 37°54' W 122°22'0 0.0
2017-Sep-18 04:57N 37°54' W 122°22'0 0.0
2017-Sep-18 04:30N 37°54' W 122°22'0 0.0
2017-Sep-18 04:00N 37°54' W 122°22'0 0.0
2017-Sep-18 03:30N 37°54' W 122°22'0 0.0
2017-Sep-18 03:00N 37°54' W 122°22'0 0.0
2017-Sep-18 02:30N 37°54' W 122°22'0 0.0
2017-Sep-18 01:54N 37°54' W 122°22'0 0.0
2017-Sep-18 01:30N 37°54' W 122°22'0 0.0
2017-Sep-18 00:57N 37°54' W 122°22'0 0.0
2017-Sep-18 00:24N 37°54' W 122°22'0 0.0
2017-Sep-17 23:57N 37°54' W 122°22'0 0.0
2017-Sep-17 23:30N 37°54' W 122°22'0 0.0
2017-Sep-17 22:57N 37°54' W 122°22'0 0.0
2017-Sep-17 22:15N 37°54' W 122°22'0 0.0
2017-Sep-17 21:57N 37°54' W 122°22'0 0.0
2017-Sep-17 21:27N 37°54' W 122°22'0 0.0
2017-Sep-17 20:57N 37°54' W 122°22'0 0.0
2017-Sep-17 20:27N 37°54' W 122°22'0 0.0
2017-Sep-17 19:54N 37°54' W 122°22'0 0.0
2017-Sep-17 19:30N 37°54' W 122°22'0 0.0
2017-Sep-17 18:57N 37°54' W 122°22'0 0.0
2017-Sep-17 18:30N 37°54' W 122°22'0 0.0
2017-Sep-17 18:00N 37°54' W 122°22'0 0.0
2017-Sep-17 17:30N 37°54' W 122°22'0 0.0
2017-Sep-17 17:00N 37°54' W 122°22'0 0.0
2017-Sep-17 16:30N 37°54' W 122°22'0 0.0
2017-Sep-17 16:00N 37°54' W 122°22'0 0.0
2017-Sep-17 15:30N 37°54' W 122°22'0 0.0
2017-Sep-17 15:00N 37°54' W 122°22'0 0.0
2017-Sep-17 14:30N 37°54' W 122°22'0 0.0
2017-Sep-17 14:00N 37°54' W 122°22'0 0.0
2017-Sep-17 13:30N 37°54' W 122°22'0 0.0
2017-Sep-17 13:00N 37°54' W 122°22'0 0.0
2017-Sep-17 12:30N 37°54' W 122°22'0 0.0
2017-Sep-17 12:00N 37°54' W 122°22'0 0.0
2017-Sep-17 11:30N 37°54' W 122°22'0 0.0
2017-Sep-17 11:00N 37°54' W 122°22'0 0.0
2017-Sep-17 10:30N 37°54' W 122°22'0 0.0
2017-Sep-17 09:57N 37°54' W 122°22'0 0.0
2017-Sep-17 09:30N 37°54' W 122°22'0 0.0
2017-Sep-17 09:00N 37°54' W 122°22'0 0.0
2017-Sep-17 08:30N 37°54' W 122°22'0 0.0
2017-Sep-17 08:00N 37°54' W 122°22'0 0.0
2017-Sep-17 07:27N 37°54' W 122°22'0 0.0
2017-Sep-17 06:51N 37°54' W 122°22'0 0.0
2017-Sep-17 06:27N 37°54' W 122°22'0 0.0
2017-Sep-17 06:00N 37°54' W 122°22'0 0.0
2017-Sep-17 05:30N 37°54' W 122°22'0 0.0
2017-Sep-17 04:57N 37°54' W 122°22'0 0.0
2017-Sep-17 04:27N 37°54' W 122°22'0 0.0
2017-Sep-17 03:57N 37°54' W 122°22'0 0.0
2017-Sep-17 03:27N 37°54' W 122°22'0 0.0
2017-Sep-17 02:57N 37°54' W 122°22'0 0.0
2017-Sep-17 01:45N 37°54' W 122°22'0 0.0
2017-Sep-17 01:30N 37°54' W 122°22'0 0.0
2017-Sep-17 01:00N 37°54' W 122°22'0 0.0
2017-Sep-17 00:30N 37°54' W 122°22'0 0.0
2017-Sep-17 00:00N 37°54' W 122°22'0 0.0
2017-Sep-16 23:30N 37°54' W 122°22'0 0.0
2017-Sep-16 23:00N 37°54' W 122°22'0 0.0
2017-Sep-16 22:27N 37°54' W 122°22'0 0.0
2017-Sep-16 21:57N 37°54' W 122°22'0 0.0
2017-Sep-16 21:30N 37°54' W 122°22'0 0.0
2017-Sep-16 21:00N 37°54' W 122°22'0 0.0
2017-Sep-16 20:30N 37°54' W 122°22'0 0.0
2017-Sep-16 19:57N 37°54' W 122°22'0 0.0
2017-Sep-16 19:30N 37°54' W 122°22'0 0.0
2017-Sep-16 19:00N 37°54' W 122°22'0 0.0
2017-Sep-16 18:30N 37°54' W 122°22'0 0.0
2017-Sep-16 17:57N 37°54' W 122°22'0 0.0
2017-Sep-16 17:27N 37°54' W 122°22'0 0.0
2017-Sep-16 16:57N 37°54' W 122°22'0 0.0
2017-Sep-16 16:30N 37°54' W 122°22'0 0.0
2017-Sep-16 16:00N 37°54' W 122°22'0 0.0
2017-Sep-16 15:30N 37°54' W 122°22'0 0.0
2017-Sep-16 15:00N 37°54' W 122°22'0 0.0
2017-Sep-16 14:30N 37°54' W 122°22'0 0.0
2017-Sep-16 14:00N 37°54' W 122°22'0 0.0
2017-Sep-16 13:30N 37°54' W 122°22'0 0.0
2017-Sep-16 13:00N 37°54' W 122°22'0 0.0
2017-Sep-16 12:30N 37°54' W 122°22'0 0.0
2017-Sep-16 11:54N 37°54' W 122°22'0 0.0
2017-Sep-16 11:30N 37°54' W 122°22'0 0.0
2017-Sep-16 11:00N 37°54' W 122°22'0 0.0
2017-Sep-16 10:24N 37°54' W 122°22'0 0.0
2017-Sep-16 10:00N 37°54' W 122°22'0 0.0
2017-Sep-16 09:30N 37°54' W 122°22'0 0.0
2017-Sep-16 09:00N 37°54' W 122°22'0 0.0
2017-Sep-16 08:27N 37°54' W 122°22'0 0.0
2017-Sep-16 08:00N 37°54' W 122°22'0 0.0
2017-Sep-16 07:30N 37°54' W 122°22'0 0.0
2017-Sep-16 07:00N 37°54' W 122°22'0 0.0
2017-Sep-16 06:27N 37°54' W 122°22'0 0.0
2017-Sep-16 05:57N 37°54' W 122°22'0 0.0
2017-Sep-16 05:27N 37°54' W 122°22'0 0.0
2017-Sep-16 04:51N 37°54' W 122°22'0 0.0
2017-Sep-16 04:27N 37°54' W 122°22'0 0.0
2017-Sep-16 03:45N 37°54' W 122°22'0 0.0
2017-Sep-16 03:27N 37°54' W 122°22'0 0.0
2017-Sep-16 02:54N 37°54' W 122°22'0 0.0
2017-Sep-16 02:30N 37°54' W 122°22'0 0.0
2017-Sep-16 01:57N 37°54' W 122°22'0 0.0
2017-Sep-16 01:30N 37°54' W 122°22'0 0.0
2017-Sep-16 01:00N 37°54' W 122°22'0 0.0
2017-Sep-16 00:27N 37°54' W 122°22'0 0.0
2017-Sep-15 23:57N 37°54' W 122°22'0 0.0
2017-Sep-15 23:24N 37°54' W 122°22'0 0.0
2017-Sep-15 22:51N 37°54' W 122°22'0 0.0
2017-Sep-15 22:27N 37°54' W 122°22'0 0.0
2017-Sep-15 21:54N 37°54' W 122°22'0 0.0
2017-Sep-15 21:24N 37°54' W 122°22'0 0.0
2017-Sep-15 20:57N 37°54' W 122°22'0 0.0
2017-Sep-15 20:27N 37°54' W 122°22'0 0.0
2017-Sep-15 19:57N 37°54' W 122°22'0 0.0
2017-Sep-15 19:27N 37°54' W 122°22'0 0.0
2017-Sep-15 19:00N 37°54' W 122°22'0 0.0
2017-Sep-15 18:30N 37°54' W 122°22'0 0.0
2017-Sep-15 18:00N 37°54' W 122°22'0 0.0
2017-Sep-15 17:30N 37°54' W 122°22'0 0.0
2017-Sep-15 17:00N 37°54' W 122°22'0 0.0
2017-Sep-15 16:30N 37°54' W 122°22'0 0.0
2017-Sep-15 16:00N 37°54' W 122°22'0 0.0
2017-Sep-15 15:30N 37°54' W 122°22'0 0.0
2017-Sep-15 15:00N 37°54' W 122°22'0 0.0
2017-Sep-15 14:30N 37°54' W 122°22'0 0.0
2017-Sep-15 13:54N 37°54' W 122°22'0 0.0
2017-Sep-15 13:30N 37°54' W 122°22'0 0.0
2017-Sep-15 13:00N 37°54' W 122°22'0 0.0
2017-Sep-15 12:30N 37°54' W 122°22'0 0.0
2017-Sep-15 12:00N 37°54' W 122°22'0 0.0
2017-Sep-15 11:30N 37°54' W 122°22'0 0.0
2017-Sep-15 11:00N 37°54' W 122°22'0 0.0
2017-Sep-15 10:30N 37°54' W 122°22'0 0.0
2017-Sep-15 10:00N 37°54' W 122°22'0 0.0
2017-Sep-15 09:30N 37°54' W 122°22'0 0.0
2017-Sep-15 09:00N 37°54' W 122°22'0 0.0
2017-Sep-15 08:30N 37°54' W 122°22'0 0.0
2017-Sep-15 08:00N 37°54' W 122°22'0 0.0
2017-Sep-15 07:30N 37°54' W 122°22'0 0.0
2017-Sep-15 07:00N 37°54' W 122°22'0 0.0
2017-Sep-15 06:27N 37°54' W 122°22'0 0.0
2017-Sep-15 05:57N 37°54' W 122°22'0 0.0
2017-Sep-15 05:21N 37°54' W 122°22'0 0.0
2017-Sep-15 04:54N 37°54' W 122°22'0 0.0
2017-Sep-15 04:21N 37°54' W 122°22'0 0.0
2017-Sep-15 03:57N 37°54' W 122°22'0 0.0
2017-Sep-15 03:27N 37°54' W 122°22'0 0.0
2017-Sep-15 02:57N 37°54' W 122°22'0 0.0
2017-Sep-15 02:21N 37°54' W 122°22'0 0.0
2017-Sep-15 01:48N 37°54' W 122°22'0 0.0
2017-Sep-15 01:24N 37°54' W 122°22'0 0.0
2017-Sep-15 01:00N 37°54' W 122°22'0 0.0
2017-Sep-15 00:24N 37°54' W 122°22'0 0.0
2017-Sep-15 00:00N 37°54' W 122°22'0 0.0
2017-Sep-14 23:27N 37°54' W 122°22'0 0.0
2017-Sep-14 23:00N 37°54' W 122°22'0 0.0
2017-Sep-14 22:30N 37°54' W 122°22'0 0.0
2017-Sep-14 22:00N 37°54' W 122°22'0 0.0
2017-Sep-14 21:30N 37°54' W 122°22'0 0.0
2017-Sep-14 20:51N 37°54' W 122°22'0 0.0
2017-Sep-14 20:30N 37°54' W 122°22'0 0.0
2017-Sep-14 20:00N 37°54' W 122°22'0 0.0
2017-Sep-14 19:27N 37°54' W 122°22'0 0.0
2017-Sep-14 19:00N 37°54' W 122°22'0 0.0
2017-Sep-14 18:30N 37°54' W 122°22'0 0.0
2017-Sep-14 18:00N 37°54' W 122°22'0 0.0
2017-Sep-14 17:24N 37°54' W 122°22'0 0.0
2017-Sep-14 17:00N 37°54' W 122°22'0 0.0
2017-Sep-14 16:30N 37°54' W 122°22'0 0.0
2017-Sep-14 16:00N 37°54' W 122°22'0 0.0
2017-Sep-14 15:30N 37°54' W 122°22'0 0.0
2017-Sep-14 14:57N 37°54' W 122°22'0 0.0
2017-Sep-14 14:24N 37°54' W 122°22'0 0.0
2017-Sep-14 14:00N 37°54' W 122°22'0 0.0
2017-Sep-14 13:30N 37°54' W 122°22'0 0.0
2017-Sep-14 13:00N 37°54' W 122°22'0 0.0
2017-Sep-14 12:30N 37°54' W 122°22'0 0.0
2017-Sep-14 12:00N 37°54' W 122°22'0 0.0
2017-Sep-14 11:30N 37°54' W 122°22'0 0.0
2017-Sep-14 10:51N 37°54' W 122°22'0 0.0
2017-Sep-14 10:24N 37°54' W 122°22'0 0.0
2017-Sep-14 10:00N 37°54' W 122°22'0 0.0
2017-Sep-14 09:30N 37°54' W 122°22'0 0.0
2017-Sep-14 09:00N 37°54' W 122°22'0 0.0
2017-Sep-14 08:30N 37°54' W 122°22'0 0.0
2017-Sep-14 08:00N 37°54' W 122°22'0 0.0
2017-Sep-14 07:30N 37°54' W 122°22'0 0.0
2017-Sep-14 07:00N 37°54' W 122°22'0 0.0
2017-Sep-14 06:30N 37°54' W 122°22'0 0.0
2017-Sep-14 05:57N 37°54' W 122°22'0 0.0
2017-Sep-14 05:30N 37°54' W 122°22'0 0.0
2017-Sep-14 04:57N 37°54' W 122°22'0 0.0
2017-Sep-14 04:30N 37°54' W 122°22'0 0.0
2017-Sep-14 04:00N 37°54' W 122°22'0 0.0
2017-Sep-14 03:24N 37°54' W 122°22'0 0.0
2017-Sep-14 03:00N 37°54' W 122°22'0 0.0
2017-Sep-14 02:30N 37°54' W 122°22'0 0.0
2017-Sep-14 02:00N 37°54' W 122°22'0 0.0
2017-Sep-14 01:30N 37°54' W 122°22'0 0.0
2017-Sep-14 01:00N 37°54' W 122°22'0 0.0
2017-Sep-14 00:30N 37°54' W 122°22'0 0.0
2017-Sep-14 00:00N 37°54' W 122°22'0 0.0
2017-Sep-13 23:30N 37°54' W 122°22'0 0.0
2017-Sep-13 23:00N 37°54' W 122°22'0 0.0
2017-Sep-13 22:30N 37°54' W 122°22'0 0.0
2017-Sep-13 22:00N 37°54' W 122°22'0 0.0
2017-Sep-13 21:30N 37°54' W 122°22'0 0.0
2017-Sep-13 21:00N 37°54' W 122°22'0 0.0
2017-Sep-13 20:30N 37°54' W 122°22'0 0.0
2017-Sep-13 20:00N 37°54' W 122°22'0 0.0
2017-Sep-13 19:30N 37°54' W 122°22'0 0.0
2017-Sep-13 18:54N 37°54' W 122°22'0 0.0
2017-Sep-13 18:30N 37°54' W 122°22'0 0.0
2017-Sep-13 18:00N 37°54' W 122°22'0 0.0
2017-Sep-13 17:30N 37°54' W 122°22'0 0.0
2017-Sep-13 16:54N 37°54' W 122°22'0 0.0
2017-Sep-13 16:30N 37°54' W 122°22'0 0.0
2017-Sep-13 15:54N 37°54' W 122°22'0 0.0
2017-Sep-13 15:30N 37°54' W 122°22'0 0.0
2017-Sep-13 15:00N 37°54' W 122°22'0 0.0
2017-Sep-13 14:30N 37°54' W 122°22'0 0.0
2017-Sep-13 14:00N 37°54' W 122°22'0 0.0
2017-Sep-13 13:30N 37°54' W 122°22'0 0.0
2017-Sep-13 13:00N 37°54' W 122°22'0 0.0
2017-Sep-13 12:30N 37°54' W 122°22'0 0.0
2017-Sep-13 12:00N 37°54' W 122°22'0 0.0
2017-Sep-13 11:30N 37°54' W 122°22'0 0.0
2017-Sep-13 11:00N 37°54' W 122°22'0 0.0
2017-Sep-13 10:30N 37°54' W 122°22'0 0.0
2017-Sep-13 10:00N 37°54' W 122°22'0 0.0
2017-Sep-13 09:30N 37°54' W 122°22'0 0.0
2017-Sep-13 09:00N 37°54' W 122°22'0 0.0
2017-Sep-13 08:30N 37°54' W 122°22'0 0.0
2017-Sep-13 08:00N 37°54' W 122°22'0 0.0
2017-Sep-13 07:30N 37°54' W 122°22'0 0.0
2017-Sep-13 07:00N 37°54' W 122°22'0 0.0
2017-Sep-13 06:30N 37°54' W 122°22'0 0.0
2017-Sep-13 05:57N 37°54' W 122°22'0 0.0
2017-Sep-13 05:30N 37°54' W 122°22'0 0.0
2017-Sep-13 04:57N 37°54' W 122°22'0 0.0
2017-Sep-13 04:30N 37°54' W 122°22'0 0.0
2017-Sep-13 04:00N 37°54' W 122°22'0 0.0
2017-Sep-13 03:30N 37°54' W 122°22'0 0.0
2017-Sep-13 03:00N 37°54' W 122°22'0 0.0
2017-Sep-13 02:30N 37°54' W 122°22'0 0.0
2017-Sep-13 02:00N 37°54' W 122°22'0 0.0
2017-Sep-13 01:30N 37°54' W 122°22'0 0.0
2017-Sep-13 01:00N 37°54' W 122°22'0 0.0
2017-Sep-13 00:30N 37°54' W 122°22'0 0.0
2017-Sep-13 00:00N 37°54' W 122°22'0 0.0
2017-Sep-12 23:30N 37°54' W 122°22'0 0.0
2017-Sep-12 23:00N 37°54' W 122°22'0 0.0
2017-Sep-12 22:30N 37°54' W 122°22'0 0.0
2017-Sep-12 22:00N 37°54' W 122°22'0 0.0
2017-Sep-12 21:30N 37°54' W 122°22'0 0.0
2017-Sep-12 21:00N 37°54' W 122°22'0 0.0
2017-Sep-12 20:30N 37°54' W 122°22'0 0.0
2017-Sep-12 20:00N 37°54' W 122°22'0 0.0
2017-Sep-12 19:30N 37°54' W 122°22'0 0.0
2017-Sep-12 19:00N 37°54' W 122°22'0 0.0
2017-Sep-12 18:27N 37°54' W 122°22'0 0.0
2017-Sep-12 17:54N 37°54' W 122°22'0 0.0
2017-Sep-12 17:27N 37°54' W 122°22'0 0.0
2017-Sep-12 16:54N 37°54' W 122°22'0 0.0
2017-Sep-12 16:30N 37°54' W 122°22'0 0.0
2017-Sep-12 16:00N 37°54' W 122°22'0 0.0
2017-Sep-12 15:30N 37°54' W 122°22'0 0.0
2017-Sep-12 15:00N 37°54' W 122°22'0 0.0
2017-Sep-12 14:30N 37°54' W 122°22'0 0.0
2017-Sep-12 14:00N 37°54' W 122°22'0 0.0
2017-Sep-12 13:30N 37°54' W 122°22'0 0.0
2017-Sep-12 13:00N 37°54' W 122°22'0 0.0
2017-Sep-12 12:30N 37°54' W 122°22'0 0.0
2017-Sep-12 12:00N 37°54' W 122°22'0 0.0
2017-Sep-12 11:30N 37°54' W 122°22'0 0.0
2017-Sep-12 11:00N 37°54' W 122°22'0 0.0
2017-Sep-12 10:30N 37°54' W 122°22'0 0.0
2017-Sep-12 10:00N 37°54' W 122°22'0 0.0
2017-Sep-12 09:30N 37°54' W 122°22'0 0.0
2017-Sep-12 09:00N 37°54' W 122°22'0 0.0
2017-Sep-12 08:30N 37°54' W 122°22'0 0.0
2017-Sep-12 08:00N 37°54' W 122°22'0 0.0
2017-Sep-12 07:30N 37°54' W 122°22'0 0.0
2017-Sep-12 07:00N 37°54' W 122°22'0 0.0
2017-Sep-12 06:30N 37°54' W 122°22'0 0.0
2017-Sep-12 06:00N 37°54' W 122°22'0 0.0
2017-Sep-12 05:30N 37°54' W 122°22'0 0.0
2017-Sep-12 05:00N 37°54' W 122°22'0 0.0
2017-Sep-12 04:24N 37°54' W 122°22'0 0.0
2017-Sep-12 04:00N 37°54' W 122°22'0 0.0
2017-Sep-12 03:30N 37°54' W 122°22'0 0.0
2017-Sep-12 03:00N 37°54' W 122°22'0 0.0
2017-Sep-12 02:30N 37°54' W 122°22'0 0.0
2017-Sep-12 02:00N 37°54' W 122°22'0 0.0
2017-Sep-12 01:30N 37°54' W 122°22'0 0.0
2017-Sep-12 00:54N 37°54' W 122°22'0 0.0
2017-Sep-12 00:30N 37°54' W 122°22'0 0.2
2017-Sep-12 00:00N 37°54' W 122°22'1 1.5
2017-Sep-11 23:31N 37°54' W 122°23'3 6.4
2017-Sep-11 23:01N 37°51' W 122°23'  

Dump ship's entire track history